RYR1C EGFF-EIDW
Flight info
| Callsign | RYR1C |
|---|---|
| Flight time | 0h 35m |
| Altitude | 24000 |
| Route | BCN P4 FELCA L9 NICXI M17 VATRY VATRY4L |
| Aircraft | B738/M-SDE2E3FGHIRWXY/LB1 |
Departure
| Time | 2026-05-01 14:39 |
|---|---|
| Airport | Cardiff International Airport (EGFF) |
Arrival
| Time | 2026-05-01 15:14 |
|---|---|
| Airport | Dublin Airport (EIDW) |
| Time | Latitude | Longitude | Altitude | Speed | Heading |
|---|---|---|---|---|---|
| 2026-05-01 14:06 | 51.39838 | -3.33745 | 218 ft | 0 kts | 297° |
| 2026-05-01 14:28 | 51.39823 | -3.33699 | 220 ft | 4 kts | 297° |
| 2026-05-01 14:28 | 51.39813 | -3.33669 | 221 ft | 4 kts | 300° |
| 2026-05-01 14:28 | 51.39798 | -3.33634 | 221 ft | 4 kts | 312° |
| 2026-05-01 14:28 | 51.39785 | -3.33606 | 221 ft | 4 kts | 260° |
| 2026-05-01 14:29 | 51.39786 | -3.33599 | 219 ft | 1 kts | 244° |
| 2026-05-01 14:34 | 51.39780 | -3.33610 | 223 ft | 4 kts | 229° |
| 2026-05-01 14:35 | 51.39758 | -3.33632 | 217 ft | 4 kts | 210° |
| 2026-05-01 14:35 | 51.39733 | -3.33653 | 217 ft | 5 kts | 206° |
| 2026-05-01 14:35 | 51.39680 | -3.33695 | 219 ft | 11 kts | 206° |
| 2026-05-01 14:35 | 51.39630 | -3.33642 | 218 ft | 10 kts | 116° |
| 2026-05-01 14:36 | 51.39599 | -3.33545 | 223 ft | 10 kts | 117° |
| 2026-05-01 14:36 | 51.39567 | -3.33444 | 219 ft | 11 kts | 117° |
| 2026-05-01 14:36 | 51.39527 | -3.33318 | 220 ft | 14 kts | 117° |
| 2026-05-01 14:36 | 51.39484 | -3.33178 | 221 ft | 14 kts | 115° |
| 2026-05-01 14:37 | 51.39426 | -3.33040 | 219 ft | 15 kts | 134° |
| 2026-05-01 14:37 | 51.39354 | -3.32921 | 219 ft | 15 kts | 134° |
| 2026-05-01 14:37 | 51.39279 | -3.32814 | 220 ft | 13 kts | 147° |
| 2026-05-01 14:37 | 51.39211 | -3.32819 | 221 ft | 5 kts | 206° |
| 2026-05-01 14:38 | 51.39192 | -3.32861 | 218 ft | 5 kts | 282° |
| 2026-05-01 14:38 | 51.39213 | -3.32916 | 220 ft | 8 kts | 297° |
| 2026-05-01 14:38 | 51.39334 | -3.33298 | 222 ft | 84 kts | 297° |
| 2026-05-01 14:38 | 51.39737 | -3.34546 | 360 ft | 155 kts | 297° |
| 2026-05-01 14:39 | 51.40233 | -3.36097 | 1515 ft | 158 kts | 295° |
| 2026-05-01 14:39 | 51.40739 | -3.37751 | 2522 ft | 171 kts | 291° |
| 2026-05-01 14:39 | 51.41252 | -3.39537 | 3256 ft | 189 kts | 291° |
| 2026-05-01 14:39 | 51.41853 | -3.41566 | 3687 ft | 215 kts | 292° |
| 2026-05-01 14:40 | 51.42527 | -3.43844 | 4174 ft | 231 kts | 292° |
| 2026-05-01 14:40 | 51.43296 | -3.46198 | 4794 ft | 246 kts | 302° |
| 2026-05-01 14:40 | 51.44578 | -3.48149 | 5377 ft | 268 kts | 326° |
| 2026-05-01 14:40 | 51.46377 | -3.49214 | 5956 ft | 285 kts | 351° |
| 2026-05-01 14:41 | 51.48344 | -3.48922 | 6378 ft | 289 kts | 21° |
| 2026-05-01 14:41 | 51.50126 | -3.47382 | 7267 ft | 292 kts | 33° |
| 2026-05-01 14:41 | 51.51842 | -3.45663 | 8258 ft | 296 kts | 34° |
| 2026-05-01 14:41 | 51.53617 | -3.43911 | 9239 ft | 301 kts | 33° |
| 2026-05-01 14:42 | 51.55438 | -3.42177 | 10186 ft | 307 kts | 32° |
| 2026-05-01 14:42 | 51.57305 | -3.40433 | 11047 ft | 312 kts | 32° |
| 2026-05-01 14:42 | 51.59206 | -3.38673 | 11804 ft | 317 kts | 31° |
| 2026-05-01 14:42 | 51.61109 | -3.36916 | 12111 ft | 315 kts | 31° |
| 2026-05-01 14:43 | 51.63040 | -3.35131 | 12181 ft | 324 kts | 31° |
| 2026-05-01 14:43 | 51.64991 | -3.33328 | 12184 ft | 322 kts | 31° |
| 2026-05-01 14:43 | 51.66907 | -3.31563 | 12179 ft | 321 kts | 31° |
| 2026-05-01 14:43 | 51.68892 | -3.29918 | 12158 ft | 323 kts | 19° |
| 2026-05-01 14:44 | 51.71147 | -3.29489 | 12252 ft | 336 kts | 353° |
| 2026-05-01 14:44 | 51.75196 | -3.33309 | 13472 ft | 349 kts | 302° |
| 2026-05-01 14:44 | 51.76446 | -3.36654 | 14385 ft | 349 kts | 296° |
| 2026-05-01 14:45 | 51.77635 | -3.40118 | 15178 ft | 354 kts | 295° |
| 2026-05-01 14:45 | 51.80072 | -3.47117 | 16705 ft | 364 kts | 296° |
| 2026-05-01 14:45 | 51.81344 | -3.50684 | 17471 ft | 369 kts | 296° |
| 2026-05-01 14:46 | 51.82480 | -3.54430 | 18231 ft | 370 kts | 287° |
| 2026-05-01 14:46 | 51.83681 | -3.62554 | 19627 ft | 374 kts | 276° |
| 2026-05-01 14:46 | 51.84183 | -3.66693 | 20287 ft | 378 kts | 277° |
| 2026-05-01 14:47 | 51.84720 | -3.70879 | 20946 ft | 382 kts | 277° |
| 2026-05-01 14:47 | 51.85273 | -3.75057 | 21590 ft | 387 kts | 277° |
| 2026-05-01 14:47 | 51.85841 | -3.79332 | 22234 ft | 391 kts | 277° |
| 2026-05-01 14:48 | 51.86973 | -3.88043 | 23456 ft | 399 kts | 276° |
| 2026-05-01 14:48 | 51.87510 | -3.92463 | 24004 ft | 402 kts | 276° |
| 2026-05-01 14:48 | 51.88593 | -4.01374 | 24180 ft | 403 kts | 276° |
| 2026-05-01 14:49 | 51.89709 | -4.10233 | 24193 ft | 405 kts | 276° |
| 2026-05-01 14:49 | 51.90841 | -4.19189 | 24198 ft | 405 kts | 276° |
| 2026-05-01 14:50 | 51.91583 | -4.25115 | 24189 ft | 405 kts | 276° |
| 2026-05-01 14:50 | 51.93067 | -4.37071 | 24188 ft | 404 kts | 276° |
| 2026-05-01 14:51 | 51.93612 | -4.41493 | 24180 ft | 404 kts | 276° |
| 2026-05-01 14:51 | 51.94754 | -4.50496 | 24188 ft | 421 kts | 280° |
| 2026-05-01 14:52 | 51.97161 | -4.59497 | 24182 ft | 441 kts | 292° |
| 2026-05-01 14:52 | 51.98560 | -4.63911 | 24174 ft | 439 kts | 292° |
| 2026-05-01 14:52 | 52.01330 | -4.72701 | 24168 ft | 435 kts | 291° |
| 2026-05-01 14:53 | 52.02665 | -4.77035 | 24172 ft | 434 kts | 291° |
| 2026-05-01 14:53 | 52.04006 | -4.81443 | 24177 ft | 434 kts | 291° |
| 2026-05-01 14:53 | 52.05334 | -4.85842 | 24172 ft | 434 kts | 291° |
| 2026-05-01 14:53 | 52.06661 | -4.90252 | 24169 ft | 434 kts | 291° |
| 2026-05-01 14:54 | 52.07981 | -4.94643 | 24161 ft | 427 kts | 291° |
| 2026-05-01 14:54 | 52.09274 | -4.98942 | 24164 ft | 419 kts | 291° |
| 2026-05-01 14:54 | 52.10549 | -5.03193 | 24170 ft | 417 kts | 290° |
| 2026-05-01 14:54 | 52.11822 | -5.07451 | 24184 ft | 418 kts | 290° |
| 2026-05-01 14:55 | 52.13153 | -5.11683 | 24169 ft | 422 kts | 297° |
| 2026-05-01 14:55 | 52.14972 | -5.15465 | 24169 ft | 424 kts | 310° |
| 2026-05-01 14:55 | 52.17210 | -5.18490 | 24157 ft | 414 kts | 324° |
| 2026-05-01 14:55 | 52.19676 | -5.20672 | 24171 ft | 401 kts | 330° |
| 2026-05-01 14:56 | 52.22142 | -5.22635 | 24154 ft | 386 kts | 331° |
| 2026-05-01 14:56 | 52.24520 | -5.24507 | 24147 ft | 373 kts | 331° |
| 2026-05-01 14:56 | 52.26805 | -5.26330 | 24144 ft | 359 kts | 330° |
| 2026-05-01 14:56 | 52.29008 | -5.28115 | 24145 ft | 346 kts | 330° |
| 2026-05-01 14:57 | 52.31123 | -5.29848 | 24142 ft | 334 kts | 329° |
| 2026-05-01 14:57 | 52.35375 | -5.33372 | 22489 ft | 363 kts | 330° |
| 2026-05-01 14:57 | 52.37679 | -5.35288 | 21278 ft | 387 kts | 330° |
| 2026-05-01 14:58 | 52.40136 | -5.37325 | 20517 ft | 398 kts | 330° |
| 2026-05-01 14:58 | 52.42594 | -5.39355 | 20350 ft | 395 kts | 330° |
| 2026-05-01 14:58 | 52.45080 | -5.41415 | 20235 ft | 403 kts | 330° |
| 2026-05-01 14:58 | 52.47599 | -5.43505 | 20176 ft | 407 kts | 330° |
| 2026-05-01 14:59 | 52.50133 | -5.45611 | 20156 ft | 408 kts | 330° |
| 2026-05-01 14:59 | 52.52670 | -5.47721 | 20146 ft | 408 kts | 330° |
| 2026-05-01 14:59 | 52.55203 | -5.49822 | 20147 ft | 408 kts | 331° |
| 2026-05-01 14:59 | 52.57858 | -5.51566 | 20146 ft | 411 kts | 340° |
| 2026-05-01 15:00 | 52.63324 | -5.54173 | 20150 ft | 412 kts | 342° |
| 2026-05-01 15:00 | 52.66083 | -5.55482 | 20149 ft | 412 kts | 341° |
| 2026-05-01 15:00 | 52.68830 | -5.56857 | 20145 ft | 412 kts | 341° |
| 2026-05-01 15:01 | 52.71577 | -5.58270 | 20144 ft | 412 kts | 340° |
| 2026-05-01 15:01 | 52.74287 | -5.59679 | 19958 ft | 405 kts | 340° |
| 2026-05-01 15:01 | 52.76968 | -5.61077 | 19539 ft | 402 kts | 340° |
| 2026-05-01 15:01 | 52.79638 | -5.62472 | 18979 ft | 403 kts | 340° |
| 2026-05-01 15:02 | 52.82314 | -5.63871 | 18444 ft | 403 kts | 340° |
| 2026-05-01 15:02 | 52.83182 | -5.64325 | 18257 ft | 403 kts | 340° |
| 2026-05-01 15:02 | 52.87591 | -5.66632 | 17506 ft | 396 kts | 340° |
| 2026-05-01 15:02 | 52.90207 | -5.68002 | 17070 ft | 391 kts | 340° |
| 2026-05-01 15:03 | 52.92793 | -5.69357 | 16605 ft | 388 kts | 340° |
| 2026-05-01 15:03 | 52.95364 | -5.70707 | 16153 ft | 385 kts | 340° |
| 2026-05-01 15:03 | 52.97909 | -5.72046 | 15701 ft | 382 kts | 340° |
| 2026-05-01 15:03 | 53.00430 | -5.73373 | 15284 ft | 378 kts | 340° |
| 2026-05-01 15:04 | 53.02933 | -5.74693 | 14853 ft | 375 kts | 340° |
| 2026-05-01 15:04 | 53.05416 | -5.76003 | 14418 ft | 373 kts | 340° |
| 2026-05-01 15:04 | 53.07880 | -5.77304 | 14003 ft | 370 kts | 340° |
| 2026-05-01 15:04 | 53.10347 | -5.78268 | 13514 ft | 370 kts | 355° |
| 2026-05-01 15:05 | 53.12887 | -5.77783 | 13051 ft | 368 kts | 19° |
| 2026-05-01 15:05 | 53.15131 | -5.75849 | 12622 ft | 361 kts | 40° |
| 2026-05-01 15:05 | 53.16852 | -5.72891 | 12175 ft | 352 kts | 59° |
| 2026-05-01 15:05 | 53.18095 | -5.69406 | 11728 ft | 347 kts | 65° |
| 2026-05-01 15:06 | 53.19257 | -5.65942 | 11279 ft | 346 kts | 60° |
| 2026-05-01 15:06 | 53.20953 | -5.63125 | 10678 ft | 348 kts | 32° |
| 2026-05-01 15:06 | 53.23225 | -5.61791 | 9962 ft | 348 kts | 7° |
| 2026-05-01 15:06 | 53.25620 | -5.61956 | 9226 ft | 343 kts | 345° |
| 2026-05-01 15:07 | 53.27793 | -5.63432 | 8567 ft | 334 kts | 325° |
| 2026-05-01 15:07 | 53.29527 | -5.65885 | 7920 ft | 322 kts | 305° |
| 2026-05-01 15:07 | 53.30797 | -5.68928 | 7388 ft | 316 kts | 298° |
| 2026-05-01 15:07 | 53.31950 | -5.72037 | 7173 ft | 308 kts | 297° |
| 2026-05-01 15:08 | 53.33038 | -5.75010 | 7066 ft | 291 kts | 297° |
| 2026-05-01 15:08 | 53.34066 | -5.77806 | 6936 ft | 273 kts | 297° |
| 2026-05-01 15:08 | 53.35051 | -5.80469 | 6595 ft | 266 kts | 297° |
| 2026-05-01 15:08 | 53.36013 | -5.83063 | 6129 ft | 265 kts | 298° |
| 2026-05-01 15:09 | 53.36985 | -5.85667 | 5689 ft | 262 kts | 298° |
| 2026-05-01 15:09 | 53.37946 | -5.88239 | 5240 ft | 260 kts | 298° |
| 2026-05-01 15:09 | 53.38906 | -5.90805 | 4780 ft | 258 kts | 298° |
| 2026-05-01 15:09 | 53.39839 | -5.93350 | 4349 ft | 253 kts | 294° |
| 2026-05-01 15:10 | 53.40351 | -5.96112 | 3938 ft | 245 kts | 278° |
| 2026-05-01 15:10 | 53.40791 | -6.01738 | 3003 ft | 246 kts | 272° |
| 2026-05-01 15:10 | 53.40932 | -6.04601 | 2670 ft | 245 kts | 272° |
| 2026-05-01 15:11 | 53.41078 | -6.07390 | 2322 ft | 234 kts | 273° |
| 2026-05-01 15:11 | 53.41345 | -6.12388 | 1757 ft | 203 kts | 272° |
| 2026-05-01 15:11 | 53.41468 | -6.14709 | 1463 ft | 194 kts | 271° |
| 2026-05-01 15:12 | 53.41583 | -6.16864 | 1201 ft | 178 kts | 270° |
| 2026-05-01 15:12 | 53.41768 | -6.20663 | 774 ft | 147 kts | 274° |
| 2026-05-01 15:12 | 53.41849 | -6.21751 | 626 ft | 137 kts | 271° |
| 2026-05-01 15:13 | 53.42099 | -6.26520 | 210 ft | 121 kts | 275° |
| 2026-05-01 15:14 | 53.42239 | -6.27973 | 214 ft | 25 kts | 303° |
| 2026-05-01 15:14 | 53.42286 | -6.28090 | 216 ft | 11 kts | 303° |
| 2026-05-01 15:14 | 53.42354 | -6.28111 | 215 ft | 7 kts | 60° |
| 2026-05-01 15:15 | 53.42350 | -6.27810 | 219 ft | 20 kts | 95° |
| 2026-05-01 15:15 | 53.42318 | -6.27238 | 210 ft | 27 kts | 95° |
| 2026-05-01 15:16 | 53.42296 | -6.26791 | 210 ft | 20 kts | 95° |
| 2026-05-01 15:16 | 53.42275 | -6.26459 | 213 ft | 2 kts | 96° |
| 2026-05-01 15:17 | 53.42267 | -6.26308 | 210 ft | 0 kts | 95° |
| 2026-05-01 15:18 | 53.42266 | -6.26228 | 210 ft | 7 kts | 86° |
| 2026-05-01 15:18 | 53.42285 | -6.26153 | 215 ft | 7 kts | 57° |
| 2026-05-01 15:19 | 53.42387 | -6.25951 | 210 ft | 10 kts | 48° |
| 2026-05-01 15:19 | 53.42506 | -6.25750 | 210 ft | 21 kts | 44° |
| 2026-05-01 15:19 | 53.42617 | -6.25558 | 210 ft | 17 kts | 51° |
| 2026-05-01 15:20 | 53.42820 | -6.25214 | 210 ft | 14 kts | 44° |
| 2026-05-01 15:20 | 53.42883 | -6.25198 | 212 ft | 6 kts | 334° |
| 2026-05-01 15:20 | 53.42910 | -6.25220 | 213 ft | 3 kts | 334° |
| 2026-05-01 15:21 | 53.42929 | -6.25233 | 210 ft | 3 kts | 345° |
| 2026-05-01 15:21 | 53.42949 | -6.25218 | 221 ft | 3 kts | 48° |
| 2026-05-01 15:21 | 53.42960 | -6.25162 | 213 ft | 9 kts | 88° |
| 2026-05-01 15:21 | 53.42954 | -6.25031 | 213 ft | 14 kts | 95° |
| 2026-05-01 15:22 | 53.42942 | -6.24803 | 210 ft | 4 kts | 95° |
| 2026-05-01 15:22 | 53.42954 | -6.24761 | 210 ft | 5 kts | 29° |
| 2026-05-01 15:22 | 53.42988 | -6.24750 | 210 ft | 4 kts | 7° |
| 2026-05-01 15:23 | 53.42996 | -6.24749 | 210 ft | 2 kts | 6° |
| 2026-05-01 15:23 | 53.42997 | -6.24748 | 210 ft | 0 kts | 6° |